Time;durP1;ratioP1;P1;durP2;ratioP2;P2;SDS_P1;SDS_P2;PMS_P1;PMS_P2;Temp;Humidity;BMP_temperature;BMP_pressure;BME280_temperature;BME280_humidity;BME280_pressure;Samples;Min_cycle;Max_cycle;Signal;HPM_P1;HPM_P2
2021/03/12 00:01:53;;;;;;;;;;;23.60;37.00;;;;;;1616238;72;779;-65
2021/03/12 00:03:55;;;;;;;;;;;23.60;37.10;;;;;;1620520;72;768;-65
2021/03/12 00:05:57;;;;;;;;;;;23.70;37.10;;;;;;1621763;72;787;-65
2021/03/12 00:07:59;;;;;;;;;;;23.70;37.00;;;;;;1624438;72;900;-67
2021/03/12 00:10:01;;;;;;;;;;;23.70;37.10;;;;;;1619994;72;1129;-64
2021/03/12 00:12:03;;;;;;;;;;;23.70;37.20;;;;;;1615673;72;783;-66
2021/03/12 00:14:05;;;;;;;;;;;23.70;37.20;;;;;;1620799;72;1918;-64
2021/03/12 00:16:07;;;;;;;;;;;23.70;37.20;;;;;;1619516;73;594;-64
2021/03/12 00:18:09;;;;;;;;;;;23.70;37.20;;;;;;1623124;72;759;-66
2021/03/12 00:20:18;;;;;;;;;;;23.70;37.30;;;;;;1621553;73;1137;-65
2021/03/12 00:22:20;;;;;;;;;;;23.70;37.10;;;;;;1624397;72;776;-63
2021/03/12 00:24:23;;;;;;;;;;;23.70;37.20;;;;;;1620907;72;720;-64
2021/03/12 00:26:25;;;;;;;;;;;23.70;37.20;;;;;;1613743;72;771;-63
2021/03/12 00:28:27;;;;;;;;;;;23.70;37.30;;;;;;1620112;72;748;-62
2021/03/12 00:30:28;;;;;;;;;;;23.70;37.30;;;;;;1617546;73;1158;-65
2021/03/12 00:32:30;;;;;;;;;;;23.70;37.70;;;;;;1622761;72;703;-65
2021/03/12 00:34:32;;;;;;;;;;;23.70;37.70;;;;;;1617973;72;1931;-65
2021/03/12 00:36:34;;;;;;;;;;;23.70;37.70;;;;;;1623281;72;740;-64
2021/03/12 00:38:36;;;;;;;;;;;23.60;37.70;;;;;;1617853;72;703;-66
2021/03/12 00:40:39;;;;;;;;;;;23.60;37.40;;;;;;1612358;72;1201;-62
2021/03/12 00:42:41;;;;;;;;;;;23.70;37.70;;;;;;1615336;72;1804;-64
2021/03/12 00:44:43;;;;;;;;;;;23.60;37.60;;;;;;1617214;72;755;-64
2021/03/12 00:46:45;;;;;;;;;;;23.60;37.70;;;;;;1614553;72;738;-64
2021/03/12 00:48:47;;;;;;;;;;;23.60;37.80;;;;;;1620244;72;1158;-65
2021/03/12 00:50:49;;;;;;;;;;;23.70;37.80;;;;;;1623413;72;779;-65
2021/03/12 00:52:51;;;;;;;;;;;23.70;37.80;;;;;;1609036;73;742;-65
2021/03/12 00:54:53;;;;;;;;;;;23.70;37.70;;;;;;1608298;73;1929;-63
2021/03/12 00:56:54;;;;;;;;;;;23.70;37.60;;;;;;1609548;72;723;-64
2021/03/12 00:58:56;;;;;;;;;;;23.70;37.60;;;;;;1607840;72;1178;-64
2021/03/12 01:00:58;;;;;;;;;;;23.60;37.50;;;;;;1611709;73;841;-64
2021/03/12 01:03:00;;;;;;;;;;;23.60;37.60;;;;;;1609995;73;716;-64
2021/03/12 01:05:02;;;;;;;;;;;23.60;37.40;;;;;;1610283;73;928;-64
2021/03/12 01:07:04;;;;;;;;;;;23.60;37.50;;;;;;1616683;72;749;-65
2021/03/12 01:09:06;;;;;;;;;;;23.60;37.60;;;;;;1614175;72;1145;-64
2021/03/12 01:11:08;;;;;;;;;;;23.60;37.50;;;;;;1611193;72;699;-65
2021/03/12 01:13:10;;;;;;;;;;;23.60;37.60;;;;;;1600455;73;1040;-65
2021/03/12 01:15:13;;;;;;;;;;;23.60;37.60;;;;;;1607722;73;1932;-67
2021/03/12 01:17:15;;;;;;;;;;;23.60;37.50;;;;;;1612774;72;809;-63
2021/03/12 01:19:17;;;;;;;;;;;23.60;37.50;;;;;;1607502;72;1143;-65
2021/03/12 01:21:19;;;;;;;;;;;23.70;37.70;;;;;;1605895;72;795;-65
2021/03/12 01:23:21;;;;;;;;;;;23.70;37.70;;;;;;1575172;74;773;-64
2021/03/12 01:25:24;;;;;;;;;;;23.60;37.60;;;;;;1608664;73;774;-66
2021/03/12 01:27:26;;;;;;;;;;;23.60;37.60;;;;;;1615020;72;765;-65
2021/03/12 01:29:28;;;;;;;;;;;23.60;37.60;;;;;;1628410;72;1163;-65
2021/03/12 01:31:30;;;;;;;;;;;23.70;37.60;;;;;;1620057;72;718;-64
2021/03/12 01:33:32;;;;;;;;;;;23.70;37.60;;;;;;1614971;72;677;-63
2021/03/12 01:35:34;;;;;;;;;;;23.70;37.30;;;;;;1614349;72;1901;-66
2021/03/12 01:37:36;;;;;;;;;;;23.80;37.50;;;;;;1581789;74;737;-67
2021/03/12 01:39:37;;;;;;;;;;;23.80;37.60;;;;;;1615012;72;1115;-66
2021/03/12 01:41:39;;;;;;;;;;;23.80;37.60;;;;;;1599746;74;739;-65
2021/03/12 01:43:41;;;;;;;;;;;23.80;37.50;;;;;;1577417;74;854;-65
2021/03/12 01:45:44;;;;;;;;;;;23.80;37.60;;;;;;1596437;73;804;-63
2021/03/12 01:47:46;;;;;;;;;;;23.80;37.60;;;;;;1597492;73;700;-65
2021/03/12 01:49:48;;;;;;;;;;;23.70;37.50;;;;;;1589873;74;1154;-65
2021/03/12 01:51:50;;;;;;;;;;;23.70;37.50;;;;;;1580048;73;784;-64
2021/03/12 01:53:51;;;;;;;;;;;23.70;37.60;;;;;;1582081;74;749;-65
2021/03/12 01:55:54;;;;;;;;;;;23.70;37.60;;;;;;1571606;74;1940;-65
2021/03/12 01:57:56;;;;;;;;;;;23.70;37.70;;;;;;1575835;74;724;-66
2021/03/12 01:59:58;;;;;;;;;;;23.80;37.70;;;;;;1579401;74;1159;-64
2021/03/12 02:02:00;;;;;;;;;;;23.80;37.70;;;;;;1575025;74;649;-64
2021/03/12 02:04:02;;;;;;;;;;;23.70;37.70;;;;;;1574305;73;666;-63
2021/03/12 02:06:04;;;;;;;;;;;23.70;37.70;;;;;;1589754;73;617;-64
2021/03/12 02:08:06;;;;;;;;;;;23.80;37.60;;;;;;1579036;74;866;-65
2021/03/12 02:10:08;;;;;;;;;;;23.70;37.60;;;;;;1598854;72;1233;-65
2021/03/12 02:12:12;;;;;;;;;;;23.70;37.70;;;;;;1604894;73;717;-65
2021/03/12 02:14:15;;;;;;;;;;;23.70;37.60;;;;;;1593595;74;1167;-65
2021/03/12 02:16:28;;;;;;;;;;;23.70;37.60;;;;;;1574359;74;1946;-65
2021/03/12 02:18:47;;;;;;;;;;;23.70;37.60;;;;;;1582074;73;753;-67
2021/03/12 02:20:51;;;;;;;;;;;23.70;37.70;;;;;;1603393;73;740;-66
2021/03/12 02:22:55;;;;;;;;;;;23.60;37.60;;;;;;1595375;74;1824;-66
2021/03/12 02:24:57;;;;;;;;;;;23.60;37.70;;;;;;1593984;73;1123;-66
2021/03/12 02:27:01;;;;;;;;;;;23.60;37.60;;;;;;1587227;73;701;-65
2021/03/12 02:29:04;;;;;;;;;;;23.70;37.70;;;;;;1579553;74;1172;-65
2021/03/12 02:31:07;;;;;;;;;;;23.70;37.80;;;;;;1579988;74;608;-65
2021/03/12 02:33:09;;;;;;;;;;;23.70;37.80;;;;;;1579094;73;664;-65
2021/03/12 02:35:12;;;;;;;;;;;23.60;37.50;;;;;;1571597;73;1939;-65
2021/03/12 02:37:15;;;;;;;;;;;23.70;37.70;;;;;;1578805;74;755;-63
2021/03/12 02:39:17;;;;;;;;;;;23.60;37.60;;;;;;1564956;74;1101;-64
2021/03/12 02:41:19;;;;;;;;;;;23.70;37.80;;;;;;1603340;73;794;-67
2021/03/12 02:43:21;;;;;;;;;;;23.60;37.60;;;;;;1604651;72;802;-65
2021/03/12 02:45:23;;;;;;;;;;;23.60;37.60;;;;;;1600812;73;800;-65
2021/03/12 02:47:26;;;;;;;;;;;23.60;37.50;;;;;;1583049;74;795;-65
2021/03/12 02:49:28;;;;;;;;;;;23.70;37.70;;;;;;1621927;72;1789;-66
2021/03/12 02:51:30;;;;;;;;;;;23.70;37.60;;;;;;1603144;73;915;-66
2021/03/12 02:53:33;;;;;;;;;;;23.60;37.50;;;;;;1593218;74;718;-66
2021/03/12 02:55:35;;;;;;;;;;;23.70;37.70;;;;;;1616108;72;1923;-64
2021/03/12 02:57:38;;;;;;;;;;;23.70;37.80;;;;;;1615085;72;760;-67
2021/03/12 02:59:40;;;;;;;;;;;23.60;37.60;;;;;;1590445;74;1155;-66
2021/03/12 03:01:42;;;;;;;;;;;23.70;37.70;;;;;;1613892;72;825;-62
2021/03/12 03:03:44;;;;;;;;;;;23.70;37.70;;;;;;1609248;72;750;-66
2021/03/12 03:05:45;;;;;;;;;;;23.60;37.80;;;;;;1539087;75;870;-65
2021/03/12 03:07:47;;;;;;;;;;;23.60;37.90;;;;;;1569586;74;823;-66
2021/03/12 03:09:49;;;;;;;;;;;23.60;37.90;;;;;;1576473;74;1190;-65
2021/03/12 03:11:51;;;;;;;;;;;23.60;37.80;;;;;;1578933;74;719;-65
2021/03/12 03:13:53;;;;;;;;;;;23.70;38.10;;;;;;1585184;74;813;-64
2021/03/12 03:15:55;;;;;;;;;;;23.70;38.00;;;;;;1575858;74;1930;-64
2021/03/12 03:17:57;;;;;;;;;;;23.70;37.90;;;;;;1588884;74;727;-64
2021/03/12 03:19:59;;;;;;;;;;;23.70;38.00;;;;;;1580711;73;2128;-66
2021/03/12 03:22:01;;;;;;;;;;;23.70;38.00;;;;;;1550986;76;772;-66
2021/03/12 03:24:03;;;;;;;;;;;23.60;37.70;;;;;;1567872;75;733;-66
2021/03/12 03:26:05;;;;;;;;;;;23.60;37.80;;;;;;1556820;76;768;-67
2021/03/12 03:28:07;;;;;;;;;;;23.70;37.90;;;;;;1562086;76;795;-65
2021/03/12 03:30:10;;;;;;;;;;;23.70;37.90;;;;;;1538381;76;1211;-65
2021/03/12 03:32:12;;;;;;;;;;;23.70;37.90;;;;;;1544061;76;716;-65
2021/03/12 03:34:14;;;;;;;;;;;23.60;37.70;;;;;;1528246;76;775;-65
2021/03/12 03:36:16;;;;;;;;;;;23.60;37.80;;;;;;1537953;77;1937;-63
2021/03/12 03:38:18;;;;;;;;;;;23.60;38.00;;;;;;1537398;76;817;-65
2021/03/12 03:40:20;;;;;;;;;;;23.60;38.00;;;;;;1539422;76;1182;-65
2021/03/12 03:42:23;;;;;;;;;;;23.60;38.00;;;;;;1538467;76;780;-66
2021/03/12 03:44:26;;;;;;;;;;;23.50;38.20;;;;;;1535231;76;715;-66
2021/03/12 03:46:28;;;;;;;;;;;23.50;38.30;;;;;;1534309;76;778;-66
2021/03/12 03:48:30;;;;;;;;;;;23.40;38.30;;;;;;1539689;77;810;-66
2021/03/12 03:50:32;;;;;;;;;;;23.40;38.40;;;;;;1538678;76;1136;-68
2021/03/12 03:52:33;;;;;;;;;;;23.30;38.60;;;;;;1538783;77;766;-69
2021/03/12 03:54:38;;;;;;;;;;;23.40;38.80;;;;;;1539782;76;752;-67
2021/03/12 03:56:40;;;;;;;;;;;23.30;38.90;;;;;;1534411;76;1926;-67
2021/03/12 03:58:42;;;;;;;;;;;23.30;38.90;;;;;;1550091;75;670;-67
2021/03/12 04:00:44;;;;;;;;;;;23.30;39.00;;;;;;1511904;77;1067;-65
2021/03/12 04:02:46;;;;;;;;;;;23.30;39.10;;;;;;1549233;75;808;-68
2021/03/12 04:04:49;;;;;;;;;;;23.20;39.00;;;;;;1550254;75;658;-68
2021/03/12 04:06:51;;;;;;;;;;;23.20;39.10;;;;;;1548931;75;756;-67
2021/03/12 04:08:53;;;;;;;;;;;23.20;39.10;;;;;;1553901;75;772;-67
2021/03/12 04:10:55;;;;;;;;;;;23.20;39.20;;;;;;1512141;77;1119;-69
2021/03/12 04:12:57;;;;;;;;;;;23.20;39.10;;;;;;1527180;76;742;-67
2021/03/12 04:15:00;;;;;;;;;;;23.20;39.10;;;;;;1553949;75;648;-67
2021/03/12 04:17:02;;;;;;;;;;;23.20;39.00;;;;;;1519597;76;1949;-67
2021/03/12 04:19:04;;;;;;;;;;;23.20;39.10;;;;;;1507679;77;1133;-67
2021/03/12 04:21:06;;;;;;;;;;;23.20;39.00;;;;;;1537713;76;753;-64
2021/03/12 04:23:07;;;;;;;;;;;23.20;39.10;;;;;;1540953;75;660;-68
2021/03/12 04:25:09;;;;;;;;;;;23.20;39.00;;;;;;1551199;75;668;-69
2021/03/12 04:27:12;;;;;;;;;;;23.20;39.00;;;;;;1564160;75;799;-67
2021/03/12 04:29:13;;;;;;;;;;;23.20;39.40;;;;;;1518446;77;1111;-69
2021/03/12 04:31:15;;;;;;;;;;;23.20;39.30;;;;;;1520560;77;742;-68
2021/03/12 04:33:19;;;;;;;;;;;23.20;39.20;;;;;;1518003;77;923;-67
2021/03/12 04:35:21;;;;;;;;;;;23.30;39.20;;;;;;1543740;75;1919;-67
2021/03/12 04:37:23;;;;;;;;;;;23.30;39.20;;;;;;1547055;75;675;-67
2021/03/12 04:39:25;;;;;;;;;;;23.20;39.20;;;;;;1520195;76;1208;-68
2021/03/12 04:41:27;;;;;;;;;;;23.20;39.40;;;;;;1519702;76;799;-66
2021/03/12 04:43:29;;;;;;;;;;;23.20;39.30;;;;;;1517179;76;749;-67
2021/03/12 04:45:31;;;;;;;;;;;23.40;39.40;;;;;;1527174;76;726;-69
2021/03/12 04:47:33;;;;;;;;;;;23.30;39.40;;;;;;1552265;75;739;-67
2021/03/12 04:49:35;;;;;;;;;;;23.30;39.20;;;;;;1500121;77;1124;-67
2021/03/12 04:51:37;;;;;;;;;;;23.30;39.10;;;;;;1543575;75;768;-68
2021/03/12 04:53:39;;;;;;;;;;;23.30;39.20;;;;;;1548062;75;818;-69
2021/03/12 04:55:41;;;;;;;;;;;23.30;39.30;;;;;;1543645;75;1926;-67
2021/03/12 04:57:43;;;;;;;;;;;23.30;39.20;;;;;;1507074;77;773;-67
2021/03/12 04:59:45;;;;;;;;;;;23.30;39.10;;;;;;1541547;76;1151;-67
2021/03/12 05:01:47;;;;;;;;;;;23.30;39.20;;;;;;1548850;75;801;-69
2021/03/12 05:03:49;;;;;;;;;;;23.30;39.10;;;;;;1530494;76;779;-68
2021/03/12 05:05:51;;;;;;;;;;;23.30;39.00;;;;;;1521982;76;761;-68
2021/03/12 05:07:53;;;;;;;;;;;23.30;39.00;;;;;;1517000;76;748;-68
2021/03/12 05:09:55;;;;;;;;;;;23.30;39.00;;;;;;1543893;75;1189;-67
2021/03/12 05:11:57;;;;;;;;;;;23.30;38.90;;;;;;1511527;77;807;-68
2021/03/12 05:13:59;;;;;;;;;;;23.30;38.90;;;;;;1550910;75;820;-67
2021/03/12 05:16:01;;;;;;;;;;;23.40;38.90;;;;;;1551032;75;1943;-68
2021/03/12 05:18:03;;;;;;;;;;;23.30;38.90;;;;;;1524329;77;667;-69
2021/03/12 05:20:05;;;;;;;;;;;23.30;38.90;;;;;;1539477;76;1125;-68
2021/03/12 05:22:07;;;;;;;;;;;23.30;38.80;;;;;;1555021;75;796;-67
2021/03/12 05:24:09;;;;;;;;;;;23.30;38.80;;;;;;1543480;75;816;-67
2021/03/12 05:26:11;;;;;;;;;;;23.30;38.80;;;;;;1521807;77;820;-68
2021/03/12 05:28:13;;;;;;;;;;;23.40;38.80;;;;;;1551977;75;784;-67
2021/03/12 05:30:15;;;;;;;;;;;23.30;38.90;;;;;;1549312;75;1151;-64
2021/03/12 05:32:17;;;;;;;;;;;23.40;38.80;;;;;;1536671;76;771;-69
2021/03/12 05:34:19;;;;;;;;;;;23.30;38.90;;;;;;1525576;76;778;-66
2021/03/12 05:36:21;;;;;;;;;;;23.30;39.20;;;;;;1550002;75;1944;-66
2021/03/12 05:38:23;;;;;;;;;;;23.40;39.10;;;;;;1511597;77;1072;-68
2021/03/12 05:40:25;;;;;;;;;;;23.40;39.00;;;;;;1545823;75;1128;-67
2021/03/12 05:42:27;;;;;;;;;;;23.40;39.10;;;;;;1512086;77;724;-67
2021/03/12 05:44:29;;;;;;;;;;;23.40;39.10;;;;;;1547718;75;718;-67
2021/03/12 05:46:31;;;;;;;;;;;23.40;38.90;;;;;;1552156;75;765;-68
2021/03/12 05:48:33;;;;;;;;;;;23.40;39.00;;;;;;1550779;75;797;-67
2021/03/12 05:50:35;;;;;;;;;;;23.40;38.90;;;;;;1554129;75;1135;-67
2021/03/12 05:52:37;;;;;;;;;;;23.40;38.90;;;;;;1547598;75;747;-68
2021/03/12 05:54:38;;;;;;;;;;;23.40;38.90;;;;;;1556539;75;804;-68
2021/03/12 05:56:40;;;;;;;;;;;23.40;38.90;;;;;;1544063;75;1942;-67
2021/03/12 05:58:42;;;;;;;;;;;23.40;38.90;;;;;;1544036;75;792;-67
2021/03/12 06:00:44;;;;;;;;;;;23.40;38.90;;;;;;1550487;75;1233;-64
2021/03/12 06:02:46;;;;;;;;;;;23.40;39.00;;;;;;1544667;75;734;-70
2021/03/12 06:04:48;;;;;;;;;;;23.40;39.20;;;;;;1518415;77;713;-69
2021/03/12 06:06:50;;;;;;;;;;;23.50;38.80;;;;;;1511648;77;806;-69
2021/03/12 06:08:51;;;;;;;;;;;23.40;38.70;;;;;;1529348;76;783;-68
2021/03/12 06:10:53;;;;;;;;;;;23.50;38.60;;;;;;1514579;76;1113;-68
2021/03/12 06:12:55;;;;;;;;;;;23.50;38.50;;;;;;1519524;76;886;-68
2021/03/12 06:14:58;;;;;;;;;;;23.40;38.30;;;;;;1516866;76;787;-68
2021/03/12 06:16:59;;;;;;;;;;;23.40;38.20;;;;;;1512799;78;1941;-66
2021/03/12 06:19:11;;;;;;;;;;;23.50;38.30;;;;;;1517272;77;719;-66
2021/03/12 06:21:28;;;;;;;;;;;23.50;38.80;;;;;;1518848;76;773;-66
2021/03/12 06:23:33;;;;;;;;;;;23.40;38.60;;;;;;1529293;76;762;-65
2021/03/12 06:25:35;;;;;;;;;;;23.50;38.90;;;;;;1517240;76;841;-65
2021/03/12 06:27:37;;;;;;;;;;;23.50;38.80;;;;;;1519690;76;731;-64
2021/03/12 06:29:39;;;;;;;;;;;23.50;38.80;;;;;;1515874;76;1145;-67
2021/03/12 06:31:42;;;;;;;;;;;23.50;39.00;;;;;;1523640;76;766;-67
2021/03/12 06:33:44;;;;;;;;;;;23.50;38.80;;;;;;1525128;76;1487;-66
2021/03/12 06:35:46;;;;;;;;;;;23.50;38.90;;;;;;1525479;76;754;-67
2021/03/12 06:37:48;;;;;;;;;;;23.50;39.00;;;;;;1518257;76;1946;-66
2021/03/12 06:39:50;;;;;;;;;;;23.50;39.10;;;;;;1514498;76;1073;-66
2021/03/12 06:41:52;;;;;;;;;;;23.50;39.00;;;;;;1522419;76;704;-65
2021/03/12 06:43:54;;;;;;;;;;;23.60;38.60;;;;;;1520502;76;755;-68
2021/03/12 06:46:00;;;;;;;;;;;23.60;39.00;;;;;;1515087;76;833;-68
2021/03/12 06:48:18;;;;;;;;;;;23.60;39.00;;;;;;1527446;77;822;-67
2021/03/12 06:50:20;;;;;;;;;;;23.50;38.80;;;;;;1524084;76;1149;-68
2021/03/12 06:52:33;;;;;;;;;;;23.60;38.70;;;;;;1530877;77;806;-69
2021/03/12 06:54:35;;;;;;;;;;;23.60;38.80;;;;;;1518057;76;1103;-73
2021/03/12 06:56:37;;;;;;;;;;;23.60;38.50;;;;;;1527555;76;1913;-70
2021/03/12 06:58:38;;;;;;;;;;;23.70;38.30;;;;;;1527953;76;979;-70
2021/03/12 07:00:40;;;;;;;;;;;23.90;38.10;;;;;;1521459;76;1071;-68
2021/03/12 07:02:42;;;;;;;;;;;24.00;37.90;;;;;;1523736;76;747;-70
2021/03/12 07:04:54;;;;;;;;;;;24.10;37.60;;;;;;1518969;76;758;-68
2021/03/12 07:06:56;;;;;;;;;;;24.10;37.20;;;;;;1562913;75;679;-71
2021/03/12 07:08:58;;;;;;;;;;;24.30;36.90;;;;;;1521070;76;802;-71
2021/03/12 07:11:00;;;;;;;;;;;24.30;36.50;;;;;;1521843;76;1158;-72
2021/03/12 07:13:02;;;;;;;;;;;24.40;36.00;;;;;;1526640;76;865;-71
2021/03/12 07:15:04;;;;;;;;;;;24.50;35.70;;;;;;1531296;76;942;-70
2021/03/12 07:17:06;;;;;;;;;;;24.50;35.50;;;;;;1530545;76;1943;-71
2021/03/12 07:19:07;;;;;;;;;;;24.60;35.30;;;;;;1523186;76;1114;-70
2021/03/12 07:21:10;;;;;;;;;;;24.50;35.10;;;;;;1523872;76;726;-72
2021/03/12 07:23:11;;;;;;;;;;;24.60;35.00;;;;;;1522576;76;743;-71
2021/03/12 07:25:13;;;;;;;;;;;24.60;34.90;;;;;;1526147;76;935;-71
2021/03/12 07:27:15;;;;;;;;;;;24.60;34.80;;;;;;1529455;77;744;-70
2021/03/12 07:29:18;;;;;;;;;;;24.50;34.50;;;;;;1527656;76;1129;-71
2021/03/12 07:31:19;;;;;;;;;;;24.40;34.70;;;;;;1524101;76;722;-74
2021/03/12 07:33:22;;;;;;;;;;;24.30;35.20;;;;;;1557342;75;727;-69
2021/03/12 07:35:24;;;;;;;;;;;24.30;35.50;;;;;;1533151;76;797;-67
2021/03/12 07:37:29;;;;;;;;;;;24.30;35.40;;;;;;1544603;75;1896;-68
2021/03/12 07:39:38;;;;;;;;;;;24.30;34.80;;;;;;1507209;76;1156;-68
2021/03/12 07:41:40;;;;;;;;;;;24.20;34.70;;;;;;1521041;76;791;-70
2021/03/12 07:43:41;;;;;;;;;;;24.10;32.90;;;;;;1515325;77;733;-78
2021/03/12 07:45:43;;;;;;;;;;;24.00;32.60;;;;;;1520719;76;745;-66
2021/03/12 07:47:45;;;;;;;;;;;23.80;29.90;;;;;;1521061;76;687;-69
2021/03/12 07:49:47;;;;;;;;;;;23.60;29.60;;;;;;1516670;76;1147;-69
2021/03/12 07:51:50;;;;;;;;;;;23.50;30.20;;;;;;1523259;76;840;-71
2021/03/12 07:53:53;;;;;;;;;;;23.50;30.60;;;;;;1517033;76;774;-68
2021/03/12 07:55:55;;;;;;;;;;;23.40;31.50;;;;;;1517637;76;1776;-65
2021/03/12 07:57:57;;;;;;;;;;;23.40;31.90;;;;;;1526550;76;1952;-69
2021/03/12 08:00:00;;;;;;;;;;;23.40;31.60;;;;;;1527619;76;1149;-69
2021/03/12 08:02:01;;;;;;;;;;;23.40;31.10;;;;;;1524922;76;838;-68
2021/03/12 08:04:04;;;;;;;;;;;23.40;31.30;;;;;;1518422;76;711;-70
2021/03/12 08:06:20;;;;;;;;;;;23.50;31.00;;;;;;1502225;78;1236;-69
2021/03/12 08:08:34;;;;;;;;;;;23.50;31.30;;;;;;1524258;76;781;-69
2021/03/12 08:10:36;;;;;;;;;;;23.70;31.70;;;;;;1523377;76;1129;-67
2021/03/12 08:12:38;;;;;;;;;;;23.80;31.30;;;;;;1522703;76;736;-69
2021/03/12 08:14:40;;;;;;;;;;;23.80;31.50;;;;;;1529037;76;779;-70
2021/03/12 08:16:53;;;;;;;;;;;23.90;31.40;;;;;;1523770;76;1969;-70
2021/03/12 08:18:55;;;;;;;;;;;24.00;31.60;;;;;;1497511;78;1126;-69
2021/03/12 08:20:57;;;;;;;;;;;24.00;31.70;;;;;;1500291;76;1103;-69
2021/03/12 08:22:59;;;;;;;;;;;24.00;31.60;;;;;;1516463;78;813;-68
2021/03/12 08:25:01;;;;;;;;;;;24.10;31.70;;;;;;1521960;76;757;-69
2021/03/12 08:27:02;;;;;;;;;;;24.10;31.60;;;;;;1526448;76;733;-70
2021/03/12 08:29:23;;;;;;;;;;;24.20;31.20;;;;;;1514893;77;1166;-71
2021/03/12 08:31:40;;;;;;;;;;;24.20;31.00;;;;;;1527422;77;725;-71
2021/03/12 08:33:42;;;;;;;;;;;24.10;31.10;;;;;;1526048;76;770;-66
2021/03/12 08:35:44;;;;;;;;;;;24.10;31.40;;;;;;1549560;75;881;-72
2021/03/12 08:37:46;;;;;;;;;;;24.20;31.00;;;;;;1535507;76;1928;-70
2021/03/12 08:39:48;;;;;;;;;;;24.20;31.30;;;;;;1545374;75;1161;-69
2021/03/12 08:41:50;;;;;;;;;;;24.20;30.60;;;;;;1511357;77;772;-69
2021/03/12 08:43:53;;;;;;;;;;;24.20;30.80;;;;;;1551450;75;712;-68
2021/03/12 08:45:55;;;;;;;;;;;24.30;30.80;;;;;;1508713;77;781;-70
2021/03/12 08:47:59;;;;;;;;;;;24.10;30.10;;;;;;1502272;77;737;-70
2021/03/12 08:50:01;;;;;;;;;;;24.10;29.60;;;;;;1545227;75;2180;-69
2021/03/12 08:52:03;;;;;;;;;;;24.00;29.70;;;;;;1541545;75;811;-70
2021/03/12 08:54:05;;;;;;;;;;;24.00;29.70;;;;;;1537779;76;745;-68
2021/03/12 08:56:08;;;;;;;;;;;23.90;29.30;;;;;;1545561;75;707;-69
2021/03/12 08:58:13;;;;;;;;;;;23.90;29.70;;;;;;1542713;75;2010;-69
2021/03/12 09:00:15;;;;;;;;;;;23.80;29.30;;;;;;1550866;75;1147;-68
2021/03/12 09:02:24;;;;;;;;;;;23.80;29.00;;;;;;1533750;75;868;-69
2021/03/12 09:04:29;;;;;;;;;;;23.70;29.70;;;;;;1521732;76;873;-68
2021/03/12 09:06:32;;;;;;;;;;;23.70;29.90;;;;;;1516203;76;1082;-69
2021/03/12 09:08:34;;;;;;;;;;;23.60;29.50;;;;;;1518162;76;786;-67
2021/03/12 09:10:36;;;;;;;;;;;23.70;29.40;;;;;;1519201;76;1127;-68
2021/03/12 09:12:38;;;;;;;;;;;23.70;29.50;;;;;;1500436;78;751;-67
2021/03/12 09:14:40;;;;;;;;;;;23.60;29.30;;;;;;1525947;76;705;-68
2021/03/12 09:16:42;;;;;;;;;;;23.70;29.70;;;;;;1522421;77;771;-68
2021/03/12 09:18:44;;;;;;;;;;;23.60;29.00;;;;;;1527650;76;1935;-67
2021/03/12 09:20:49;;;;;;;;;;;23.60;29.40;;;;;;1580297;70;217689;-62
2021/03/12 09:22:52;;;;;;;;;;;23.70;30.00;;;;;;1602038;73;732;-61
2021/03/12 09:24:54;;;;;;;;;;;23.70;29.90;;;;;;1618082;73;868;-62
2021/03/12 09:26:56;;;;;;;;;;;23.70;29.30;;;;;;1615812;72;776;-61
2021/03/12 09:29:03;;;;;;;;;;;23.60;29.50;;;;;;1616703;72;768;-61
2021/03/12 09:31:05;;;;;;;;;;;23.60;29.70;;;;;;1614352;72;1193;-61
2021/03/12 09:33:08;;;;;;;;;;;23.60;29.50;;;;;;1613504;72;800;-61
2021/03/12 09:35:17;;;;;;;;;;;23.70;29.60;;;;;;1620724;72;709;-62
2021/03/12 09:37:18;;;;;;;;;;;23.60;29.20;;;;;;1604182;72;1930;-60
2021/03/12 09:39:21;;;;;;;;;;;23.60;29.20;;;;;;1613492;72;867;-61
2021/03/12 09:41:24;;;;;;;;;;;23.50;29.40;;;;;;1610580;72;1119;-61
2021/03/12 09:43:25;;;;;;;;;;;23.60;29.60;;;;;;1618336;72;933;-60
2021/03/12 09:45:27;;;;;;;;;;;23.50;29.70;;;;;;1622213;72;766;-60
2021/03/12 09:47:29;;;;;;;;;;;23.60;29.70;;;;;;1625900;72;741;-60
2021/03/12 09:49:32;;;;;;;;;;;23.50;29.20;;;;;;1623673;72;1140;-63
2021/03/12 09:51:34;;;;;;;;;;;23.50;29.90;;;;;;1613303;72;1041;-62
2021/03/12 09:53:36;;;;;;;;;;;23.50;29.50;;;;;;1611510;72;709;-61
2021/03/12 09:55:38;;;;;;;;;;;23.50;29.40;;;;;;1610485;72;800;-61
2021/03/12 09:57:41;;;;;;;;;;;23.40;29.60;;;;;;1603750;72;1913;-61
2021/03/12 09:59:44;;;;;;;;;;;23.40;29.40;;;;;;1604331;72;1090;-60
2021/03/12 10:01:48;;;;;;;;;;;23.40;29.70;;;;;;1596038;73;1326;-62
2021/03/12 10:03:49;;;;;;;;;;;23.40;30.40;;;;;;1620281;72;1996;-61
2021/03/12 10:05:51;;;;;;;;;;;23.40;30.00;;;;;;1622315;72;718;-59
2021/03/12 10:07:53;;;;;;;;;;;23.30;30.40;;;;;;1620045;72;710;-61
2021/03/12 10:09:55;;;;;;;;;;;23.40;30.20;;;;;;1611311;72;1139;-61
2021/03/12 10:11:57;;;;;;;;;;;23.40;30.30;;;;;;1602316;72;885;-61
2021/03/12 10:13:59;;;;;;;;;;;23.30;30.00;;;;;;1608957;72;840;-61
2021/03/12 10:16:03;;;;;;;;;;;23.30;30.20;;;;;;1613282;72;775;-61
2021/03/12 10:18:05;;;;;;;;;;;23.20;30.00;;;;;;1615989;72;1905;-61
2021/03/12 10:20:20;;;;;;;;;;;23.20;30.20;;;;;;1609039;72;1175;-61
2021/03/12 10:22:32;;;;;;;;;;;23.20;30.10;;;;;;1617633;72;718;-61
2021/03/12 10:24:34;;;;;;;;;;;23.20;30.00;;;;;;1606673;72;833;-61
2021/03/12 10:26:36;;;;;;;;;;;23.10;30.10;;;;;;1614539;72;783;-61
2021/03/12 10:28:38;;;;;;;;;;;23.10;30.20;;;;;;1614903;72;775;-59
2021/03/12 10:30:40;;;;;;;;;;;23.10;30.00;;;;;;1606056;72;1140;-62
2021/03/12 10:32:43;;;;;;;;;;;23.10;30.10;;;;;;1602532;72;809;-60
2021/03/12 10:34:52;;;;;;;;;;;23.00;29.90;;;;;;1616594;72;816;-62
2021/03/12 10:36:55;;;;;;;;;;;23.00;29.70;;;;;;1614720;72;785;-61
2021/03/12 10:38:57;;;;;;;;;;;23.00;29.90;;;;;;1610257;72;1947;-61
2021/03/12 10:41:00;;;;;;;;;;;22.90;29.80;;;;;;1614432;72;1200;-64
2021/03/12 10:43:15;;;;;;;;;;;23.00;30.00;;;;;;1608605;72;797;-61
2021/03/12 10:45:21;;;;;;;;;;;23.00;29.80;;;;;;1620924;72;814;-61
2021/03/12 10:47:23;;;;;;;;;;;22.90;29.80;;;;;;1612977;72;760;-61
2021/03/12 10:49:28;;;;;;;;;;;22.90;29.90;;;;;;1622671;72;1111;-62
2021/03/12 10:51:37;;;;;;;;;;;22.90;29.80;;;;;;1617276;72;839;-63
2021/03/12 10:53:47;;;;;;;;;;;22.90;29.90;;;;;;1643108;71;952;-62
2021/03/12 10:55:49;;;;;;;;;;;22.90;29.90;;;;;;1638530;71;828;-61
2021/03/12 10:57:58;;;;;;;;;;;22.90;29.70;;;;;;1632122;71;1976;-60
2021/03/12 10:59:55;;;;;;;;;;;22.80;29.60;;;;;;1632871;71;1623;-60
2021/03/12 11:01:57;;;;;;;;;;;22.90;29.60;;;;;;1624597;71;747;-61
2021/03/12 11:04:00;;;;;;;;;;;22.80;29.40;;;;;;1626044;71;817;-61
2021/03/12 11:06:03;;;;;;;;;;;22.90;29.50;;;;;;1637564;71;713;-61
2021/03/12 11:08:05;;;;;;;;;;;22.90;29.60;;;;;;1633181;71;763;-70
2021/03/12 11:10:07;;;;;;;;;;;22.80;28.00;;;;;;1633637;71;1137;-59
2021/03/12 11:12:09;;;;;;;;;;;22.60;27.40;;;;;;1641114;71;721;-60
2021/03/12 11:14:11;;;;;;;;;;;22.70;28.40;;;;;;1640800;71;744;-61
2021/03/12 11:16:13;;;;;;;;;;;22.70;29.40;;;;;;1656152;71;787;-64
2021/03/12 11:18:15;;;;;;;;;;;22.70;29.60;;;;;;1638222;71;1950;-63
2021/03/12 11:20:18;;;;;;;;;;;22.60;29.30;;;;;;1648525;71;1155;-63
2021/03/12 11:22:20;;;;;;;;;;;22.70;29.60;;;;;;1650415;71;780;-63
2021/03/12 11:24:22;;;;;;;;;;;22.60;29.40;;;;;;1654104;72;743;-63
2021/03/12 11:26:24;;;;;;;;;;;22.70;29.40;;;;;;1654803;72;778;-64
2021/03/12 11:28:27;;;;;;;;;;;22.70;29.50;;;;;;1653198;72;756;-64
2021/03/12 11:30:29;;;;;;;;;;;22.70;29.40;;;;;;1647187;72;1141;-64
2021/03/12 11:32:32;;;;;;;;;;;22.60;29.40;;;;;;1655708;70;708;-61
2021/03/12 11:34:34;;;;;;;;;;;22.70;29.60;;;;;;1655732;72;738;-61
2021/03/12 11:36:36;;;;;;;;;;;22.70;29.30;;;;;;1646955;71;839;-62
2021/03/12 11:38:38;;;;;;;;;;;22.60;29.30;;;;;;1655920;72;1927;-62
2021/03/12 11:40:40;;;;;;;;;;;22.60;29.20;;;;;;1655861;72;1098;-62
2021/03/12 11:42:42;;;;;;;;;;;22.60;29.30;;;;;;1641098;70;779;-61
2021/03/12 11:44:44;;;;;;;;;;;22.60;29.00;;;;;;1650130;70;729;-60
2021/03/12 11:46:45;;;;;;;;;;;22.60;29.20;;;;;;1655098;72;784;-60
2021/03/12 11:48:48;;;;;;;;;;;22.60;28.90;;;;;;1648086;72;742;-60
2021/03/12 11:50:50;;;;;;;;;;;22.60;29.00;;;;;;1652444;72;1122;-60
2021/03/12 11:52:52;;;;;;;;;;;22.60;29.00;;;;;;1645037;72;756;-61
2021/03/12 11:54:54;;;;;;;;;;;22.60;28.70;;;;;;1640376;72;736;-62
2021/03/12 11:56:56;;;;;;;;;;;22.60;28.90;;;;;;1638872;72;834;-62
2021/03/12 11:58:58;;;;;;;;;;;22.50;28.80;;;;;;1642845;72;1920;-61
2021/03/12 12:01:00;;;;;;;;;;;22.50;28.80;;;;;;1638922;72;1120;-60
2021/03/12 12:03:03;;;;;;;;;;;22.50;28.70;;;;;;1640699;72;769;-62
2021/03/12 12:05:06;;;;;;;;;;;22.50;28.90;;;;;;1646609;71;705;-61
2021/03/12 12:07:08;;;;;;;;;;;22.50;28.80;;;;;;1646806;70;757;-61
2021/03/12 12:09:09;;;;;;;;;;;22.50;28.70;;;;;;1640749;72;816;-62
2021/03/12 12:11:11;;;;;;;;;;;22.50;28.80;;;;;;1646421;71;1124;-60
2021/03/12 12:13:13;;;;;;;;;;;22.50;28.70;;;;;;1637231;72;751;-65